This is the latest recevied weather packets stored in our database for station/object N1NCB-3. If no packets are shown the sender has not sent any weather packets the latest 10 day(s).
| Time | Temp. | Humidity | Pressure | Rain* | Wind** | Luminosity | Snow |
|---|---|---|---|---|---|---|---|
| 1777847183 | 16.11° C | 39% | 1000.3 hPa | 0 mm | - | - | - |
| 1777846882 | 18.33° C | 38% | 1000.3 hPa | 0 mm | - | - | - |
| 1777846583 | 18.89° C | 37% | 1000.3 hPa | 0 mm | - | - | - |
| 1777846282 | 18.89° C | 37% | 1000 hPa | 0 mm | - | - | - |
| 1777845983 | 19.44° C | 36% | 1000 hPa | 0 mm | - | - | - |
| 1777845683 | 21.11° C | 37% | 1000 hPa | 0 mm | - | - | - |
| 1777845383 | 20.56° C | 37% | 1000 hPa | 0 mm | - | - | - |
| 1777845083 | 19.44° C | 38% | 1000 hPa | 0 mm | - | - | - |
| 1777844783 | 19.44° C | 39% | 1000 hPa | 0 mm | - | - | - |
| 1777844482 | 19.44° C | 41% | 1000 hPa | 0 mm | - | - | - |
| 1777844183 | 19.44° C | 39% | 1000 hPa | 0 mm | - | - | - |
| 1777843883 | 21.67° C | 39% | 1000 hPa | 0 mm | - | - | - |
| 1777843583 | 21.67° C | 36% | 1000 hPa | 0 mm | - | - | - |
| 1777843283 | 23.33° C | 39% | 1000 hPa | 0 mm | - | - | - |
| 1777842983 | 22.78° C | 41% | 1000 hPa | 0 mm | - | - | - |
| 1777842683 | 21.11° C | 45% | 1000 hPa | 0 mm | - | - | - |
| 1777842383 | 18.33° C | 52% | 1000 hPa | 0 mm | - | - | - |
| 1777842083 | 15.56° C | 58% | 1000 hPa | 0 mm | - | - | - |
| 1777841783 | 13.89° C | 59% | 1000 hPa | 0 mm | - | - | - |
| 1777841483 | 13.33° C | 62% | 1000 hPa | 0 mm | - | - | - |
| 1777841183 | 12.78° C | 62% | 1000 hPa | 0 mm | - | - | - |
| 1777840883 | 12.22° C | 62% | 1000 hPa | 0 mm | - | - | - |
| 1777840583 | 12.22° C | 63% | 1000 hPa | 0 mm | - | - | - |
| 1777840283 | 12.22° C | 66% | 1000 hPa | 0 mm | - | - | - |
| 1777839983 | 12.22° C | 66% | 1000 hPa | 0 mm | - | - | - |
* Rain latest hour (hover to see other rain measurements)
** Current wind speed in m/s (hover to see current wind gust speed)